Time;durP1;ratioP1;P1;durP2;ratioP2;P2;SDS_P1;SDS_P2;PMS_P1;PMS_P2;Temp;Humidity;BMP_temperature;BMP_pressure;BME280_temperature;BME280_humidity;BME280_pressure;Samples;Min_cycle;Max_cycle;Signal;HPM_P1;HPM_P2
2021/04/01 00:00:38;;;;;;;6.53;5.80;;;;;21.00;100832.00;;;;2078909;28;20222;-45
2021/04/01 00:01:38;;;;;;;6.50;5.88;;;;;21.00;100827.00;;;;2076746;28;20215;-46
2021/04/01 00:02:39;;;;;;;6.17;5.57;;;;;21.00;100824.00;;;;2073977;28;20335;-44
2021/04/01 00:03:42;;;;;;;7.27;6.13;;;;;21.00;100821.00;;;;2077636;28;20221;-46
2021/04/01 00:04:42;;;;;;;6.63;5.97;;;;;21.00;100821.00;;;;2070320;28;20214;-45
2021/04/01 00:05:43;;;;;;;6.10;5.50;;;;;21.00;100824.00;;;;2070774;28;20214;-46
2021/04/01 00:06:43;;;;;;;6.50;5.47;;;;;21.00;100823.00;;;;2069577;28;20210;-45
2021/04/01 00:07:44;;;;;;;6.50;5.90;;;;;21.00;100824.00;;;;2065941;28;20238;-46
2021/04/01 00:08:44;;;;;;;6.63;5.93;;;;;21.00;100825.00;;;;2070463;28;20218;-44
2021/04/01 00:09:45;;;;;;;6.03;5.50;;;;;21.00;100821.00;;;;2070620;28;20242;-44
2021/04/01 00:10:45;;;;;;;6.40;5.80;;;;;21.00;100828.00;;;;2071220;28;20281;-45
2021/04/01 00:11:46;;;;;;;6.67;6.07;;;;;21.00;100828.00;;;;2069600;28;20225;-45
2021/04/01 00:12:46;;;;;;;6.57;5.93;;;;;21.00;100818.00;;;;2070775;28;20218;-45
2021/04/01 00:13:46;;;;;;;6.13;5.53;;;;;21.00;100826.00;;;;2070664;28;20226;-45
2021/04/01 00:14:47;;;;;;;6.80;6.17;;;;;21.00;100824.00;;;;2078563;28;20210;-45
2021/04/01 00:15:48;;;;;;;5.97;5.47;;;;;21.00;100825.00;;;;2078872;28;20304;-44
2021/04/01 00:16:48;;;;;;;6.07;5.53;;;;;21.00;100819.00;;;;2078272;28;20456;-44
2021/04/01 00:17:48;;;;;;;6.30;5.80;;;;;21.00;100825.00;;;;2078283;28;20221;-44
2021/04/01 00:18:49;;;;;;;6.50;5.90;;;;;21.00;100827.00;;;;2078910;28;20264;-44
2021/04/01 00:19:49;;;;;;;6.77;6.17;;;;;21.00;100825.00;;;;2079085;28;20217;-45
2021/04/01 00:20:49;;;;;;;7.87;6.00;;;;;21.00;100820.00;;;;2077692;28;20280;-52
2021/04/01 00:21:50;;;;;;;6.57;5.93;;;;;21.00;100820.00;;;;2076755;28;20241;-49
2021/04/01 00:22:50;;;;;;;6.47;5.87;;;;;21.00;100818.00;;;;2073243;28;20219;-48
2021/04/01 00:23:50;;;;;;;5.60;5.10;;;;;21.00;100816.00;;;;2069824;28;20281;-45
2021/04/01 00:24:51;;;;;;;6.70;6.00;;;;;21.00;100822.00;;;;2076435;28;20236;-45
2021/04/01 00:25:51;;;;;;;6.40;5.80;;;;;21.00;100821.00;;;;2078979;28;20301;-45
2021/04/01 00:26:52;;;;;;;6.13;5.53;;;;;21.00;100817.00;;;;2071459;28;20219;-46
2021/04/01 00:27:52;;;;;;;6.60;6.07;;;;;21.00;100817.00;;;;2070763;28;20317;-44
2021/04/01 00:28:52;;;;;;;5.67;5.27;;;;;21.00;100816.00;;;;2070952;28;20227;-46
2021/04/01 00:29:53;;;;;;;6.00;5.47;;;;;21.00;100816.00;;;;2070640;28;20577;-45
2021/04/01 00:30:53;;;;;;;6.37;5.67;;;;;21.00;100816.00;;;;2070844;28;20369;-45
2021/04/01 00:31:53;;;;;;;6.40;5.87;;;;;20.90;100820.00;;;;2072738;28;20229;-45
2021/04/01 00:32:54;;;;;;;6.20;5.60;;;;;20.90;100813.00;;;;2075201;28;20214;-45
2021/04/01 00:33:54;;;;;;;5.77;5.27;;;;;20.90;100820.00;;;;2075028;28;20796;-45
2021/04/01 00:34:55;;;;;;;6.40;5.83;;;;;21.00;100815.00;;;;2070437;28;20282;-45
2021/04/01 00:35:55;;;;;;;6.60;5.73;;;;;20.90;100816.00;;;;2070676;28;22119;-44
2021/04/01 00:36:55;;;;;;;6.10;5.60;;;;;21.00;100819.00;;;;2072591;28;20344;-44
2021/04/01 00:37:56;;;;;;;6.20;5.70;;;;;21.00;100810.00;;;;2071044;28;20229;-45
2021/04/01 00:38:56;;;;;;;6.00;5.50;;;;;21.00;100813.00;;;;2070585;28;20234;-45
2021/04/01 00:39:57;;;;;;;6.43;5.90;;;;;21.00;100813.00;;;;2070638;28;20222;-44
2021/04/01 00:40:57;;;;;;;6.53;5.80;;;;;21.00;100816.00;;;;2070390;28;20682;-45
2021/04/01 00:41:58;;;;;;;6.27;5.77;;;;;20.90;100822.00;;;;2068785;28;20462;-45
2021/04/01 00:42:58;;;;;;;6.00;5.50;;;;;21.00;100816.00;;;;2069402;28;20218;-44
2021/04/01 00:44:05;;;;;;;6.20;5.60;;;;;20.90;100816.00;;;;2070890;28;20245;-45
2021/04/01 00:45:07;;;;;;;6.03;5.50;;;;;21.00;100820.00;;;;2070671;28;20214;-45
2021/04/01 00:46:07;;;;;;;6.43;5.82;;;;;21.00;100817.00;;;;2070565;28;20223;-44
2021/04/01 00:47:08;;;;;;;6.53;5.93;;;;;20.70;100808.00;;;;2070576;28;20217;-44
2021/04/01 00:48:09;;;;;;;5.77;5.23;;;;;20.90;100819.00;;;;2070918;28;20301;-44
2021/04/01 00:49:09;;;;;;;6.33;5.73;;;;;21.00;100815.00;;;;2070936;28;20211;-44
2021/04/01 00:50:11;;;;;;;5.83;5.33;;;;;20.90;100809.00;;;;2070734;28;20207;-45
2021/04/01 00:51:12;;;;;;;5.80;5.30;;;;;20.90;100806.00;;;;2073284;28;20206;-45
2021/04/01 00:52:12;;;;;;;5.53;4.97;;;;;20.90;100811.00;;;;2076859;28;20583;-44
2021/04/01 00:53:12;;;;;;;6.00;5.50;;;;;20.90;100797.00;;;;2078486;28;20221;-45
2021/04/01 00:54:13;;;;;;;5.63;5.13;;;;;20.90;100814.00;;;;2078709;28;20679;-45
2021/04/01 00:55:13;;;;;;;5.77;5.27;;;;;20.90;100803.00;;;;2078823;28;20609;-45
2021/04/01 00:56:14;;;;;;;6.13;5.63;;;;;20.90;100799.00;;;;2078611;28;20214;-45
2021/04/01 00:57:14;;;;;;;6.23;5.63;;;;;20.90;100805.00;;;;2078291;28;20225;-44
2021/04/01 00:58:14;;;;;;;6.07;5.57;;;;;20.90;100803.00;;;;2078704;28;20293;-45
2021/04/01 00:59:15;;;;;;;5.77;5.27;;;;;20.90;100800.00;;;;2077773;28;20226;-45
2021/04/01 01:00:17;;;;;;;5.80;5.30;;;;;20.90;100804.00;;;;2071628;28;20234;-46
2021/04/01 01:01:28;;;;;;;5.93;5.43;;;;;20.90;100800.00;;;;2077513;28;20218;-45
2021/04/01 01:02:28;;;;;;;6.20;5.70;;;;;20.90;100802.00;;;;2068461;28;20635;-43
2021/04/01 01:03:29;;;;;;;6.00;5.50;;;;;20.90;100802.00;;;;2069313;28;20218;-45
2021/04/01 01:04:30;;;;;;;6.10;5.60;;;;;20.90;100807.00;;;;2071293;28;20681;-46
2021/04/01 01:05:31;;;;;;;6.50;5.90;;;;;20.90;100800.00;;;;2071019;28;20226;-45
2021/04/01 01:06:31;;;;;;;5.33;4.83;;;;;20.90;100799.00;;;;2077136;28;20222;-43
2021/04/01 01:07:32;;;;;;;5.77;5.27;;;;;20.90;100782.00;;;;2077695;28;20846;-45
2021/04/01 01:08:33;;;;;;;5.93;5.32;;;;;20.90;100790.00;;;;2061408;28;20270;-45
2021/04/01 01:09:33;;;;;;;5.80;5.20;;;;;20.90;100794.00;;;;2060620;28;20975;-44
2021/04/01 01:10:34;;;;;;;5.80;5.13;;;;;20.90;100795.00;;;;2067971;28;20211;-44
2021/04/01 01:11:35;;;;;;;5.83;5.33;;;;;20.90;100797.00;;;;2069419;28;20215;-44
2021/04/01 01:12:35;;;;;;;5.60;5.10;;;;;20.90;100794.00;;;;2068383;28;20219;-45
2021/04/01 01:13:36;;;;;;;5.63;5.13;;;;;20.90;100793.00;;;;2070154;28;20213;-45
2021/04/01 01:14:36;;;;;;;5.90;5.40;;;;;20.90;100803.00;;;;2069158;28;20235;-45
2021/04/01 01:15:36;;;;;;;6.00;5.47;;;;;20.90;100795.00;;;;2061001;28;21168;-44
2021/04/01 01:16:37;;;;;;;5.63;5.13;;;;;20.90;100795.00;;;;2060965;28;20681;-45
2021/04/01 01:17:37;;;;;;;5.53;5.03;;;;;20.90;100793.00;;;;2069204;28;20292;-45
2021/04/01 01:18:38;;;;;;;5.37;4.87;;;;;20.90;100796.00;;;;2069418;28;20293;-45
2021/04/01 01:19:39;;;;;;;5.78;5.28;;;;;20.90;100788.00;;;;2069384;28;20226;-45
2021/04/01 01:20:39;;;;;;;5.43;5.03;;;;;20.90;100794.00;;;;2070189;28;20297;-45
2021/04/01 01:21:40;;;;;;;5.53;5.10;;;;;20.90;100788.00;;;;2070270;28;20264;-45
2021/04/01 01:22:40;;;;;;;6.10;5.53;;;;;20.90;100797.00;;;;2068761;28;20202;-45
2021/04/01 01:23:41;;;;;;;6.27;5.70;;;;;20.90;100796.00;;;;2061557;28;20275;-44
2021/04/01 01:24:41;;;;;;;5.67;5.10;;;;;20.90;100796.00;;;;2069858;28;20294;-44
2021/04/01 01:25:41;;;;;;;4.90;4.50;;;;;20.90;100797.00;;;;2067560;28;20226;-43
2021/04/01 01:26:42;;;;;;;6.00;5.50;;;;;20.90;100797.00;;;;2069375;28;20223;-43
2021/04/01 01:27:42;;;;;;;5.80;5.20;;;;;20.90;100802.00;;;;2077142;28;20229;-45
2021/04/01 01:28:43;;;;;;;6.07;5.50;;;;;20.90;100795.00;;;;2077893;28;20264;-45
2021/04/01 01:29:47;;;;;;;5.47;5.07;;;;;20.90;100793.00;;;;2064347;28;20215;-44
2021/04/01 01:30:48;;;;;;;5.47;5.03;;;;;20.90;100790.00;;;;2067228;28;20226;-45
2021/04/01 01:31:50;;;;;;;6.00;5.40;;;;;20.90;100791.00;;;;2070805;28;20221;-45
2021/04/01 01:32:59;;;;;;;5.88;5.38;;;;;20.90;100793.00;;;;2074250;28;20240;-45
2021/04/01 01:33:59;;;;;;;5.82;5.32;;;;;20.90;100791.00;;;;2072749;28;20221;-44
2021/04/01 01:34:59;;;;;;;5.40;5.00;;;;;20.90;100739.00;;;;2069996;28;20218;-45
2021/04/01 01:36:00;;;;;;;6.20;5.30;;;;;20.90;100797.00;;;;2070008;28;20762;-45
2021/04/01 01:37:00;;;;;;;5.90;5.30;;;;;20.90;100794.00;;;;2070308;28;20437;-43
2021/04/01 01:38:03;;;;;;;5.27;4.87;;;;;20.90;100791.00;;;;2077653;28;20214;-46
2021/04/01 01:39:04;;;;;;;5.38;4.97;;;;;20.90;100793.00;;;;2077926;28;20583;-43
2021/04/01 01:40:05;;;;;;;6.20;5.60;;;;;20.90;100793.00;;;;2072246;28;20376;-44
2021/04/01 01:41:06;;;;;;;5.45;4.95;;;;;20.90;100785.00;;;;2070114;28;20233;-45
2021/04/01 01:42:06;;;;;;;6.00;5.00;;;;;20.90;100788.00;;;;2071835;28;20213;-44
2021/04/01 01:43:08;;;;;;;5.60;4.90;;;;;20.90;100784.00;;;;2077276;28;20856;-43
2021/04/01 01:44:09;;;;;;;5.10;4.60;;;;;20.90;100784.00;;;;2072935;28;20226;-44
2021/04/01 01:45:10;;;;;;;5.20;4.70;;;;;20.90;100779.00;;;;2070123;28;20225;-45
2021/04/01 01:46:10;;;;;;;5.60;5.13;;;;;20.90;100786.00;;;;2069683;28;20785;-44
2021/04/01 01:47:10;;;;;;;5.43;5.03;;;;;20.90;100786.00;;;;2070121;28;20589;-44
2021/04/01 01:48:11;;;;;;;5.63;4.87;;;;;20.90;100788.00;;;;2069747;28;20219;-43
2021/04/01 01:49:11;;;;;;;5.07;4.57;;;;;20.90;100783.00;;;;2070121;28;20207;-46
2021/04/01 01:50:15;;;;;;;5.23;4.77;;;;;20.90;100788.00;;;;2069385;28;20301;-44
2021/04/01 01:51:15;;;;;;;5.13;4.72;;;;;20.90;100785.00;;;;2069418;28;20631;-45
2021/04/01 01:52:16;;;;;;;5.83;5.33;;;;;20.90;100785.00;;;;2073846;28;20221;-44
2021/04/01 01:53:16;;;;;;;5.60;5.10;;;;;20.90;100797.00;;;;2076598;28;20222;-44
2021/04/01 01:54:17;;;;;;;5.67;5.17;;;;;20.90;100797.00;;;;2077096;28;20210;-43
2021/04/01 01:55:17;;;;;;;5.60;5.10;;;;;20.90;100790.00;;;;2077413;28;20273;-44
2021/04/01 01:56:24;;;;;;;5.80;5.30;;;;;20.90;100786.00;;;;2069397;28;20281;-45
2021/04/01 01:57:25;;;;;;;5.25;4.78;;;;;20.90;100789.00;;;;2074929;28;20225;-44
2021/04/01 01:58:25;;;;;;;5.53;5.03;;;;;20.90;100792.00;;;;2077484;28;20324;-43
2021/04/01 01:59:26;;;;;;;5.40;4.93;;;;;20.90;100786.00;;;;2076844;28;20299;-46
2021/04/01 02:00:37;;;;;;;5.38;4.85;;;;;20.90;100792.00;;;;2069309;28;20217;-45
2021/04/01 02:01:38;;;;;;;5.00;4.60;;;;;20.90;100786.00;;;;2076717;28;20268;-46
2021/04/01 02:02:38;;;;;;;5.50;4.37;;;;;20.90;100783.00;;;;2072115;28;20218;-43
2021/04/01 02:03:38;;;;;;;5.77;5.27;;;;;20.90;100791.00;;;;2072342;28;20218;-45
2021/04/01 02:04:39;;;;;;;5.27;4.83;;;;;20.90;100785.00;;;;2069578;28;20230;-44
2021/04/01 02:05:40;;;;;;;5.30;4.90;;;;;20.90;100783.00;;;;2070045;28;20218;-44
2021/04/01 02:06:40;;;;;;;4.85;4.45;;;;;20.90;100783.00;;;;2070146;28;20226;-44
2021/04/01 02:07:40;;;;;;;5.77;5.20;;;;;20.80;100771.00;;;;2071856;28;20281;-45
2021/04/01 02:08:41;;;;;;;5.17;4.77;;;;;20.90;100775.00;;;;2072425;28;20919;-43
2021/04/01 02:09:46;;;;;;;5.60;5.10;;;;;20.90;100778.00;;;;2077905;28;20564;-44
2021/04/01 02:10:47;;;;;;;5.20;4.80;;;;;20.80;100783.00;;;;2069527;28;20218;-44
2021/04/01 02:11:48;;;;;;;5.22;4.72;;;;;20.80;100782.00;;;;2069162;28;20217;-46
2021/04/01 02:12:48;;;;;;;4.83;4.43;;;;;20.90;100784.00;;;;2070134;28;20830;-43
2021/04/01 02:13:49;;;;;;;5.00;4.60;;;;;20.90;100784.00;;;;2069823;28;20210;-43
2021/04/01 02:14:49;;;;;;;5.27;4.77;;;;;20.80;100781.00;;;;2073085;28;20694;-44
2021/04/01 02:15:53;;;;;;;5.67;5.17;;;;;20.90;100784.00;;;;2078012;28;20202;-46
2021/04/01 02:16:53;;;;;;;5.53;5.03;;;;;20.90;100778.00;;;;2073899;28;20261;-43
2021/04/01 02:18:07;;;;;;;5.57;5.17;;;;;20.80;100777.00;;;;2069309;28;21011;-44
2021/04/01 02:19:07;;;;;;;4.85;4.55;;;;;20.80;100778.00;;;;2068512;28;20580;-45
2021/04/01 02:20:10;;;;;;;5.10;4.70;;;;;20.90;100773.00;;;;2069839;28;20269;-45
2021/04/01 02:21:11;;;;;;;5.00;4.60;;;;;20.80;100776.00;;;;2069803;28;20218;-46
2021/04/01 02:22:12;;;;;;;6.00;5.50;;;;;20.90;100776.00;;;;2068828;28;20218;-44
2021/04/01 02:23:16;;;;;;;4.83;4.43;;;;;20.90;100773.00;;;;2069561;28;21228;-43
2021/04/01 02:24:17;;;;;;;4.97;4.57;;;;;20.90;100770.00;;;;2068895;28;20210;-45
2021/04/01 02:25:17;;;;;;;4.80;4.40;;;;;20.90;100764.00;;;;2069799;28;20279;-45
2021/04/01 02:26:17;;;;;;;4.87;4.50;;;;;20.80;100765.00;;;;2069934;28;20215;-45
2021/04/01 02:27:18;;;;;;;4.87;4.47;;;;;20.90;100765.00;;;;2069996;28;20214;-43
2021/04/01 02:28:20;;;;;;;5.27;4.87;;;;;20.90;100764.00;;;;2069709;28;20281;-44
2021/04/01 02:29:20;;;;;;;6.10;5.60;;;;;20.90;100766.00;;;;2069852;28;20852;-44
2021/04/01 02:30:21;;;;;;;5.57;5.07;;;;;20.90;100772.00;;;;2069857;28;20237;-44
2021/04/01 02:31:22;;;;;;;5.78;5.22;;;;;20.80;100763.00;;;;2072562;28;20210;-43
2021/04/01 02:32:22;;;;;;;5.53;5.03;;;;;20.80;100762.00;;;;2071438;28;20763;-44
2021/04/01 02:33:24;;;;;;;5.90;5.40;;;;;20.90;100764.00;;;;2072433;28;20345;-46
2021/04/01 02:34:24;;;;;;;5.07;4.68;;;;;20.90;100763.00;;;;2069554;28;20695;-45
2021/04/01 02:35:25;;;;;;;4.80;4.30;;;;;20.90;100762.00;;;;2069973;28;20265;-44
2021/04/01 02:36:25;;;;;;;4.93;4.53;;;;;20.80;100765.00;;;;2069659;28;20703;-44
2021/04/01 02:37:26;;;;;;;5.43;4.93;;;;;20.80;100761.00;;;;2070013;28;20854;-45
2021/04/01 02:38:26;;;;;;;5.37;4.87;;;;;20.80;100763.00;;;;2069648;28;20583;-43
2021/04/01 02:39:27;;;;;;;4.97;4.57;;;;;20.80;100758.00;;;;2071517;28;20273;-46
2021/04/01 02:40:27;;;;;;;5.00;4.60;;;;;20.80;100768.00;;;;2077681;28;20228;-44
2021/04/01 02:41:27;;;;;;;4.70;4.30;;;;;20.80;100759.00;;;;2078192;28;20216;-45
2021/04/01 02:42:28;;;;;;;4.90;4.47;;;;;20.80;100760.00;;;;2076736;28;20308;-44
2021/04/01 02:43:32;;;;;;;4.87;4.47;;;;;20.80;100763.00;;;;2073306;28;20218;-44
2021/04/01 02:44:32;;;;;;;4.90;4.50;;;;;20.80;100763.00;;;;2078057;28;20217;-44
2021/04/01 02:45:33;;;;;;;4.93;4.53;;;;;20.80;100760.00;;;;2078060;28;20245;-44
2021/04/01 02:46:34;;;;;;;4.73;4.33;;;;;20.80;100759.00;;;;2077985;28;20751;-43
2021/04/01 02:47:34;;;;;;;5.00;4.60;;;;;20.80;100756.00;;;;2070809;28;20458;-43
2021/04/01 02:48:35;;;;;;;5.30;4.80;;;;;20.80;100756.00;;;;2069706;28;20222;-42
2021/04/01 02:49:35;;;;;;;4.97;4.57;;;;;20.80;100758.00;;;;2069734;28;20215;-43
2021/04/01 02:50:36;;;;;;;5.27;4.77;;;;;20.80;100758.00;;;;2069097;28;20822;-44
2021/04/01 02:51:36;;;;;;;4.77;4.37;;;;;20.80;100764.00;;;;2069037;28;20825;-44
2021/04/01 02:52:37;;;;;;;5.43;4.93;;;;;20.80;100762.00;;;;2068786;28;21092;-44
2021/04/01 02:53:37;;;;;;;4.77;4.43;;;;;20.80;100757.00;;;;2069932;28;20219;-44
2021/04/01 02:54:38;;;;;;;5.17;4.43;;;;;20.70;100759.00;;;;2069761;28;20305;-45
2021/04/01 02:55:38;;;;;;;4.90;4.50;;;;;20.80;100758.00;;;;2069868;28;20219;-45
2021/04/01 02:56:38;;;;;;;5.30;4.80;;;;;20.80;100752.00;;;;2069778;28;20298;-43
2021/04/01 02:57:39;;;;;;;4.83;4.43;;;;;20.80;100761.00;;;;2069798;28;20217;-45
2021/04/01 02:58:40;;;;;;;4.90;4.50;;;;;20.80;100762.00;;;;2069598;28;20222;-44
2021/04/01 02:59:40;;;;;;;5.47;4.97;;;;;20.80;100766.00;;;;2072509;28;20449;-43
2021/04/01 03:00:40;;;;;;;4.43;4.03;;;;;20.80;100767.00;;;;2078177;28;20205;-43
2021/04/01 03:01:41;;;;;;;5.47;5.07;;;;;20.80;100760.00;;;;2078746;28;20772;-43
2021/04/01 03:02:50;;;;;;;4.63;4.27;;;;;20.80;100760.00;;;;2070643;28;20345;-44
2021/04/01 03:03:51;;;;;;;4.65;3.80;;;;;20.80;100764.00;;;;2075703;28;20245;-44
2021/04/01 03:04:53;;;;;;;4.50;4.20;;;;;20.80;100767.00;;;;2069828;28;20215;-45
2021/04/01 03:05:55;;;;;;;5.47;4.97;;;;;20.80;100759.00;;;;2069917;28;20222;-44
2021/04/01 03:06:56;;;;;;;5.30;4.80;;;;;20.80;100763.00;;;;2074389;28;20692;-45
2021/04/01 03:07:56;;;;;;;5.17;4.77;;;;;20.80;100761.00;;;;2072727;28;20211;-45
2021/04/01 03:08:56;;;;;;;5.00;4.60;;;;;20.80;100757.00;;;;2075495;28;20222;-45
2021/04/01 03:09:57;;;;;;;5.30;4.83;;;;;20.80;100764.00;;;;2077758;28;20230;-43
2021/04/01 03:10:57;;;;;;;5.30;4.90;;;;;20.80;100766.00;;;;2077549;28;20218;-43
2021/04/01 03:11:57;;;;;;;5.07;4.67;;;;;20.80;100764.00;;;;2076743;28;20229;-48
2021/04/01 03:12:58;;;;;;;4.90;4.50;;;;;20.80;100752.00;;;;2077874;28;20214;-44
2021/04/01 03:13:58;;;;;;;5.00;4.60;;;;;20.80;100760.00;;;;2077531;28;20564;-45
2021/04/01 03:14:58;;;;;;;4.87;4.47;;;;;20.80;100757.00;;;;2077904;28;20259;-44
2021/04/01 03:15:59;;;;;;;5.13;4.63;;;;;20.80;100750.00;;;;2078673;28;20280;-45
2021/04/01 03:16:59;;;;;;;4.73;4.33;;;;;20.80;100759.00;;;;2078871;28;20214;-44
2021/04/01 03:18:00;;;;;;;4.93;4.53;;;;;20.80;100755.00;;;;2078562;28;20222;-44
2021/04/01 03:19:00;;;;;;;4.93;4.53;;;;;20.80;100751.00;;;;2079014;28;20214;-44
2021/04/01 03:20:00;;;;;;;4.97;4.57;;;;;20.80;100750.00;;;;2079647;28;20213;-46
2021/04/01 03:21:01;;;;;;;5.23;4.73;;;;;20.80;100751.00;;;;2079448;28;20214;-43
2021/04/01 03:22:01;;;;;;;4.77;4.37;;;;;20.80;100746.00;;;;2077425;28;20667;-45
2021/04/01 03:23:02;;;;;;;5.03;4.23;;;;;20.80;100764.00;;;;2078803;28;20293;-44
2021/04/01 03:24:02;;;;;;;5.10;4.70;;;;;20.80;100756.00;;;;2079648;28;20218;-46
2021/04/01 03:25:04;;;;;;;5.10;4.70;;;;;20.80;100748.00;;;;2078938;28;20233;-43
2021/04/01 03:26:04;;;;;;;4.70;4.40;;;;;20.80;100755.00;;;;2078718;28;20711;-44
2021/04/01 03:27:04;;;;;;;5.00;4.50;;;;;20.80;100754.00;;;;2079035;28;20218;-43
2021/04/01 03:28:05;;;;;;;4.53;4.13;;;;;20.80;100755.00;;;;2078866;28;20222;-42
2021/04/01 03:29:06;;;;;;;5.37;4.87;;;;;20.80;100749.00;;;;2078843;28;20900;-43
2021/04/01 03:30:12;;;;;;;4.57;4.17;;;;;20.80;100753.00;;;;2078485;28;20233;-43
2021/04/01 03:31:12;;;;;;;4.97;4.57;;;;;20.80;100758.00;;;;2074379;28;20450;-46
2021/04/01 03:32:12;;;;;;;4.47;4.07;;;;;20.80;100752.00;;;;2072366;28;20306;-44
2021/04/01 03:33:13;;;;;;;5.03;4.63;;;;;20.80;100748.00;;;;2072247;28;20727;-44
2021/04/01 03:34:13;;;;;;;4.80;4.40;;;;;20.80;100744.00;;;;2064501;28;20576;-44
2021/04/01 03:35:15;;;;;;;4.93;4.53;;;;;20.80;100754.00;;;;2077339;28;20225;-44
2021/04/01 03:36:15;;;;;;;4.55;4.15;;;;;20.80;100752.00;;;;2075213;28;20219;-44
2021/04/01 03:37:16;;;;;;;4.90;4.20;;;;;20.80;100751.00;;;;2070804;28;20692;-43
2021/04/01 03:38:17;;;;;;;4.83;4.43;;;;;20.80;100752.00;;;;2070484;28;20284;-43
2021/04/01 03:39:18;;;;;;;4.80;4.40;;;;;20.80;100748.00;;;;2070902;28;20228;-45
2021/04/01 03:40:18;;;;;;;4.97;4.57;;;;;20.80;100741.00;;;;2071160;28;20211;-45
2021/04/01 03:41:19;;;;;;;4.30;3.90;;;;;20.80;100743.00;;;;2070825;28;20218;-44
2021/04/01 03:42:19;;;;;;;4.60;4.20;;;;;20.80;100757.00;;;;2068840;28;20583;-48
2021/04/01 03:43:20;;;;;;;5.20;4.70;;;;;20.70;100755.00;;;;2070754;28;20244;-44
2021/04/01 03:44:21;;;;;;;4.93;4.53;;;;;20.80;100745.00;;;;2071075;28;20214;-44
2021/04/01 03:45:21;;;;;;;5.03;4.63;;;;;20.80;100744.00;;;;2071065;28;20632;-44
2021/04/01 03:46:22;;;;;;;4.53;4.23;;;;;20.70;100750.00;;;;2067078;28;20225;-43
2021/04/01 03:47:22;;;;;;;4.53;4.13;;;;;20.80;100751.00;;;;2070922;28;20223;-43
2021/04/01 03:48:22;;;;;;;4.47;4.07;;;;;20.80;100753.00;;;;2070937;28;20219;-43
2021/04/01 03:49:23;;;;;;;4.57;4.17;;;;;20.80;100757.00;;;;2070832;28;20616;-45
2021/04/01 03:50:23;;;;;;;4.63;4.23;;;;;20.80;100758.00;;;;2078941;28;20234;-44
2021/04/01 03:51:23;;;;;;;5.17;4.77;;;;;20.80;100760.00;;;;2079295;28;20198;-44
2021/04/01 03:52:24;;;;;;;5.07;4.67;;;;;20.80;100760.00;;;;2077303;28;20210;-44
2021/04/01 03:53:24;;;;;;;5.00;4.60;;;;;20.70;100764.00;;;;2079108;28;20230;-44
2021/04/01 03:54:24;;;;;;;4.70;4.30;;;;;20.80;100782.00;;;;2072443;28;20199;-43
2021/04/01 03:55:41;;;;;;;4.80;4.40;;;;;20.80;100764.00;;;;2070942;28;20718;-45
2021/04/01 03:56:48;;;;;;;5.07;4.68;;;;;20.80;100761.00;;;;2077066;28;22378;-45
2021/04/01 03:57:50;;;;;;;4.88;4.47;;;;;20.80;100755.00;;;;2079061;28;20744;-45
2021/04/01 04:02:19;;;;;;;4.82;4.43;;;;;20.80;100764.00;;;;2073472;28;20211;-43
2021/04/01 04:05:41;;;;;;;5.40;4.90;;;;;20.80;100764.00;;;;2070781;28;20608;-43
2021/04/01 04:11:01;;;;;;;5.50;5.10;;;;;20.70;100763.00;;;;2069716;28;21105;-44
2021/04/01 04:13:15;;;;;;;4.93;4.50;;;;;20.70;100770.00;;;;2070825;28;20218;-42
2021/04/01 04:14:30;;;;;;;4.88;4.35;;;;;20.70;100783.00;;;;2075203;28;20214;-45
2021/04/01 04:15:30;;;;;;;5.22;4.82;;;;;20.70;100773.00;;;;2078529;28;20263;-44
2021/04/01 04:16:31;;;;;;;4.93;4.53;;;;;20.80;100777.00;;;;2078716;28;20264;-45
2021/04/01 04:17:31;;;;;;;4.90;4.50;;;;;20.80;100776.00;;;;2078751;28;20228;-46
2021/04/01 04:18:32;;;;;;;4.87;4.30;;;;;20.70;100777.00;;;;2079227;28;20240;-46
2021/04/01 04:19:32;;;;;;;4.63;4.23;;;;;20.80;100782.00;;;;2078631;28;20260;-43
2021/04/01 04:20:32;;;;;;;4.40;4.00;;;;;20.70;100784.00;;;;2078888;28;20956;-43
2021/04/01 04:21:33;;;;;;;4.80;4.43;;;;;20.70;100784.00;;;;2078545;28;20206;-44
2021/04/01 04:22:33;;;;;;;4.57;4.17;;;;;20.70;100779.00;;;;2077591;28;20758;-45
2021/04/01 04:23:36;;;;;;;5.07;4.67;;;;;20.80;100790.00;;;;2078660;28;20705;-45
2021/04/01 04:24:37;;;;;;;4.90;4.50;;;;;20.70;100791.00;;;;2070063;28;20210;-44
2021/04/01 04:25:37;;;;;;;4.83;4.43;;;;;20.70;100786.00;;;;2061568;28;20208;-44
2021/04/01 04:26:38;;;;;;;5.13;4.73;;;;;20.60;100784.00;;;;2077667;28;20214;-45
2021/04/01 04:27:56;;;;;;;4.50;4.10;;;;;20.80;100776.00;;;;2078717;28;20758;-45
2021/04/01 04:28:56;;;;;;;4.53;4.15;;;;;20.80;100786.00;;;;2077461;28;20226;-45
2021/04/01 04:30:00;;;;;;;5.17;4.67;;;;;20.70;100781.00;;;;2079022;28;20301;-44
2021/04/01 04:31:01;;;;;;;4.63;4.22;;;;;20.70;100783.00;;;;2078703;28;20260;-44
2021/04/01 04:32:01;;;;;;;5.10;4.40;;;;;20.70;100787.00;;;;2072929;28;20219;-43
2021/04/01 04:33:02;;;;;;;5.30;4.80;;;;;20.70;100785.00;;;;2074221;28;20475;-44
2021/04/01 04:34:02;;;;;;;4.57;4.27;;;;;20.70;100779.00;;;;2073803;28;20336;-44
2021/04/01 04:35:03;;;;;;;4.57;4.17;;;;;20.80;100782.00;;;;2070600;28;20218;-44
2021/04/01 04:36:04;;;;;;;4.27;3.97;;;;;20.80;100782.00;;;;2070463;28;20222;-46
2021/04/01 04:37:04;;;;;;;4.32;3.92;;;;;20.70;100787.00;;;;2070441;28;20290;-44
2021/04/01 04:38:05;;;;;;;4.80;4.30;;;;;20.70;100791.00;;;;2070005;28;20238;-44
2021/04/01 04:39:05;;;;;;;4.47;4.07;;;;;20.70;100788.00;;;;2074533;28;20572;-44
2021/04/01 04:40:06;;;;;;;4.87;4.47;;;;;20.70;100786.00;;;;2078769;28;20225;-43
2021/04/01 04:41:07;;;;;;;4.78;4.38;;;;;20.70;100785.00;;;;2078655;28;20245;-44
2021/04/01 04:42:07;;;;;;;4.73;4.37;;;;;20.70;100730.00;;;;2077635;28;20776;-44
2021/04/01 04:43:08;;;;;;;4.87;4.47;;;;;20.70;100777.00;;;;2078789;28;20217;-45
2021/04/01 04:44:08;;;;;;;4.47;4.17;;;;;20.70;100781.00;;;;2078564;28;20206;-44
2021/04/01 04:45:10;;;;;;;4.93;4.43;;;;;20.70;100774.00;;;;2077562;28;20210;-46
2021/04/01 04:46:10;;;;;;;4.60;4.20;;;;;20.70;100779.00;;;;2070599;28;20243;-46
2021/04/01 04:47:11;;;;;;;4.23;3.93;;;;;20.70;100776.00;;;;2070497;28;20244;-44
2021/04/01 04:48:11;;;;;;;5.30;4.27;;;;;20.70;100779.00;;;;2070613;28;20227;-43
2021/04/01 04:49:11;;;;;;;4.90;4.20;;;;;20.70;100785.00;;;;2073837;28;20675;-43
2021/04/01 04:50:12;;;;;;;4.90;4.50;;;;;20.70;100789.00;;;;2078639;28;20219;-43
2021/04/01 04:51:12;;;;;;;4.67;4.30;;;;;20.70;100790.00;;;;2078732;28;20214;-46
2021/04/01 04:52:13;;;;;;;4.13;3.83;;;;;20.70;100781.00;;;;2077782;28;20233;-43
2021/04/01 04:53:14;;;;;;;4.67;4.27;;;;;20.70;100795.00;;;;2078691;28;20264;-43
2021/04/01 04:54:15;;;;;;;5.13;4.63;;;;;20.70;100788.00;;;;2078631;28;20218;-45
2021/04/01 04:55:16;;;;;;;4.67;4.27;;;;;20.70;100784.00;;;;2066190;28;20219;-44
2021/04/01 04:56:18;;;;;;;4.70;4.30;;;;;20.70;100797.00;;;;2061615;28;20238;-43
2021/04/01 04:58:49;;;;;;;4.60;4.20;;;;;20.70;100735.00;;;;2069818;28;20219;-45
2021/04/01 05:00:44;;;;;;;4.80;4.40;;;;;20.70;100792.00;;;;2066781;28;20211;-45
2021/04/01 05:01:06;;;;;;;4.63;4.22;;;;;20.70;100797.00;;;;2073304;28;20206;-44
2021/04/01 05:05:44;;;;;;;4.63;4.33;;;;;20.70;100812.00;;;;2070359;28;20230;-43
2021/04/01 05:06:54;;;;;;;5.00;4.50;;;;;20.70;100809.00;;;;2070354;28;20229;-42
2021/04/01 05:07:55;;;;;;;4.43;4.10;;;;;20.70;100818.00;;;;2072442;28;20222;-48
2021/04/01 05:08:55;;;;;;;4.83;4.43;;;;;20.70;100809.00;;;;2070355;28;20238;-46
2021/04/01 05:09:55;;;;;;;4.77;4.40;;;;;20.70;100819.00;;;;2069996;28;20218;-42
2021/04/01 05:10:56;;;;;;;4.53;4.10;;;;;20.70;100822.00;;;;2070034;28;20576;-42
2021/04/01 05:11:56;;;;;;;4.73;4.33;;;;;20.70;100825.00;;;;2069022;28;20315;-44
2021/04/01 05:14:03;;;;;;;6.30;4.65;;;;;20.70;100817.00;;;;2069875;28;20219;-43
2021/04/01 05:15:04;;;;;;;5.10;4.67;;;;;20.70;100816.00;;;;2070512;28;20207;-45
2021/04/01 05:16:04;;;;;;;5.13;4.73;;;;;20.70;100822.00;;;;2070246;28;20219;-42
2021/04/01 05:17:06;;;;;;;4.23;3.90;;;;;20.70;100814.00;;;;2061011;28;20219;-44
2021/04/01 05:19:17;;;;;;;4.75;4.35;;;;;20.70;100822.00;;;;2081381;28;20209;-44
2021/04/01 05:20:18;;;;;;;4.55;4.15;;;;;20.70;100822.00;;;;2078471;28;20219;-47
2021/04/01 05:21:20;;;;;;;4.90;4.40;;;;;20.70;100829.00;;;;2072313;28;20233;-44